createdAt,value
2022-11-01T00:00:14.214Z,949.3
2022-11-01T00:01:20.394Z,949.3
2022-11-01T00:02:26.592Z,949.3
2022-11-01T00:03:32.727Z,949.3
2022-11-01T00:04:38.901Z,949.3
2022-11-01T00:05:44.107Z,949.3
2022-11-01T00:06:49.285Z,949.3
2022-11-01T00:07:54.525Z,949.3
2022-11-01T00:08:59.672Z,949.3
2022-11-01T00:10:05.855Z,949.3
2022-11-01T00:11:11.999Z,949.4
2022-11-01T00:12:18.199Z,949.3
2022-11-01T00:13:24.348Z,949.3
2022-11-01T00:14:30.536Z,949.4
2022-11-01T00:15:36.679Z,949.3
2022-11-01T00:16:42.869Z,949.3
2022-11-01T00:17:49.030Z,949.3
2022-11-01T00:18:55.218Z,949.3
2022-11-01T00:20:01.413Z,949.3
2022-11-01T00:21:07.534Z,949.3
2022-11-01T00:22:13.700Z,949.4
2022-11-01T00:23:18.904Z,949.4
2022-11-01T00:24:25.117Z,949.4
2022-11-01T00:25:31.213Z,949.4
2022-11-01T00:26:37.400Z,949.4
2022-11-01T00:27:43.565Z,949.3
2022-11-01T00:28:49.747Z,949.4
2022-11-01T00:29:55.908Z,949.3
2022-11-01T00:31:01.128Z,949.3
2022-11-01T00:32:06.405Z,949.3
2022-11-01T00:33:11.521Z,949.3
2022-11-01T00:34:16.753Z,949.3
2022-11-01T00:35:22.861Z,949.3
2022-11-01T00:36:29.007Z,949.3
2022-11-01T00:37:35.224Z,949.3
2022-11-01T00:38:41.344Z,949.3
2022-11-01T00:39:47.517Z,949.3
2022-11-01T00:40:53.683Z,949.2
2022-11-01T00:41:59.967Z,949.2
2022-11-01T00:43:06.051Z,949.2
2022-11-01T00:44:12.259Z,949.2
2022-11-01T00:45:18.408Z,949.3
2022-11-01T00:46:24.590Z,949.3
2022-11-01T00:47:30.699Z,949.3
2022-11-01T00:48:35.912Z,949.4
2022-11-01T00:49:42.051Z,949.4
2022-11-01T00:50:48.229Z,949.4
2022-11-01T00:51:54.403Z,949.4
2022-11-01T00:53:00.566Z,949.4
2022-11-01T00:54:06.770Z,949.4
2022-11-01T00:55:12.908Z,949.3
2022-11-01T00:56:18.149Z,949.2
2022-11-01T00:57:23.302Z,949.2
2022-11-01T00:58:28.485Z,949.4
2022-11-01T00:59:33.686Z,949.5
2022-11-01T01:00:39.853Z,949.5
2022-11-01T01:01:46.010Z,949.5
2022-11-01T01:02:52.175Z,949.5
2022-11-01T01:03:58.344Z,949.4
2022-11-01T01:05:04.513Z,949.5
2022-11-01T01:06:10.698Z,949.6
2022-11-01T01:07:16.896Z,949.6
2022-11-01T01:08:23.050Z,949.7
2022-11-01T01:09:29.187Z,949.6
2022-11-01T01:10:35.369Z,949.6
2022-11-01T01:11:41.597Z,949.5
2022-11-01T01:12:47.704Z,949.5
2022-11-01T01:13:52.896Z,949.4
2022-11-01T01:14:59.073Z,949.3
2022-11-01T01:16:05.225Z,949.3
2022-11-01T01:17:11.392Z,949.3
2022-11-01T01:18:17.663Z,949.4
2022-11-01T01:20:29.923Z,949.3
2022-11-01T01:21:36.098Z,949.3
2022-11-01T01:22:41.292Z,949.3
2022-11-01T01:23:46.461Z,949.3
2022-11-01T01:24:52.638Z,949.3
2022-11-01T01:25:58.805Z,949.2
2022-11-01T01:27:05.001Z,949.3
2022-11-01T01:28:11.153Z,949.2
2022-11-01T01:29:17.314Z,949.2
2022-11-01T01:30:23.488Z,949.2
2022-11-01T01:31:29.715Z,949.3
2022-11-01T01:32:35.847Z,949.3
2022-11-01T01:33:41.983Z,949.3
2022-11-01T01:34:48.235Z,949.4
2022-11-01T01:35:54.377Z,949.4
2022-11-01T01:37:00.506Z,949.4
2022-11-01T01:38:05.732Z,949.5
2022-11-01T01:39:11.856Z,949.6
2022-11-01T01:40:18.021Z,949.7
2022-11-01T01:41:24.196Z,949.8
2022-11-01T01:42:30.370Z,949.9
2022-11-01T01:43:36.555Z,950
2022-11-01T01:44:42.727Z,950
2022-11-01T01:46:54.053Z,950.2
2022-11-01T01:47:59.272Z,950.2
2022-11-01T01:49:04.438Z,950.1
2022-11-01T01:50:09.642Z,950.1
2022-11-01T01:51:14.832Z,950.1
2022-11-01T01:52:20.982Z,950.1
2022-11-01T01:53:27.168Z,950.1
2022-11-01T01:54:33.336Z,950.2
2022-11-01T01:55:39.489Z,950.2
2022-11-01T01:56:45.736Z,950.1
2022-11-01T01:57:51.872Z,950.1
2022-11-01T01:58:58.040Z,950.1
2022-11-01T02:00:04.210Z,950.2
2022-11-01T02:01:10.343Z,950.3
2022-11-01T02:02:16.583Z,950.3
2022-11-01T02:03:22.747Z,950.3
2022-11-01T02:04:28.904Z,950.4
2022-11-01T02:05:34.050Z,950.4
2022-11-01T02:06:40.229Z,950.4
2022-11-01T02:07:46.424Z,950.4
2022-11-01T02:08:52.556Z,950.4
2022-11-01T02:09:58.749Z,950.5
2022-11-01T02:11:04.912Z,950.6
2022-11-01T02:12:11.084Z,950.6
2022-11-01T02:13:16.296Z,950.6
2022-11-01T02:14:21.472Z,950.6
2022-11-01T02:15:26.656Z,950.6
2022-11-01T02:16:31.816Z,950.6
2022-11-01T02:17:37.997Z,950.7
2022-11-01T02:18:44.172Z,950.7
2022-11-01T02:19:50.333Z,950.7
2022-11-01T02:20:56.504Z,950.8
2022-11-01T02:22:02.678Z,950.7
2022-11-01T02:23:08.864Z,950.7
2022-11-01T02:24:15.018Z,950.7
2022-11-01T02:25:21.214Z,950.6
2022-11-01T02:26:27.398Z,950.7
2022-11-01T02:27:33.524Z,950.7
2022-11-01T02:28:39.691Z,950.7
2022-11-01T02:29:45.859Z,950.7
2022-11-01T02:30:51.076Z,950.7
2022-11-01T02:31:57.241Z,950.8
2022-11-01T02:33:03.380Z,950.8
2022-11-01T02:34:09.546Z,950.7
2022-11-01T02:35:15.711Z,950.8
2022-11-01T02:36:21.964Z,950.8
2022-11-01T02:37:28.049Z,950.7
2022-11-01T02:38:33.265Z,950.7
2022-11-01T02:39:38.462Z,950.7
2022-11-01T02:40:43.661Z,950.8
2022-11-01T02:41:48.828Z,950.8
2022-11-01T02:42:55.033Z,950.7
2022-11-01T02:44:01.257Z,950.8
2022-11-01T02:45:07.325Z,950.7
2022-11-01T02:46:13.512Z,950.7
2022-11-01T02:47:19.672Z,950.7
2022-11-01T02:48:25.852Z,950.8
2022-11-01T02:49:32.025Z,950.8
2022-11-01T02:50:38.196Z,950.7
2022-11-01T02:51:44.348Z,950.8
2022-11-01T02:52:50.513Z,950.9
2022-11-01T02:53:56.725Z,950.9
2022-11-01T02:55:02.856Z,950.8
2022-11-01T02:56:08.060Z,950.9
2022-11-01T02:57:14.296Z,950.8
2022-11-01T02:58:20.410Z,950.7
2022-11-01T02:59:26.566Z,950.7
2022-11-01T03:00:32.736Z,950.7
2022-11-01T03:01:38.900Z,950.6
2022-11-01T03:02:45.138Z,950.7
2022-11-01T03:03:50.263Z,950.6
2022-11-01T03:04:55.457Z,950.5
2022-11-01T03:06:00.640Z,950.6
2022-11-01T03:07:05.839Z,950.6
2022-11-01T03:08:12.017Z,950.6
2022-11-01T03:09:18.169Z,950.6
2022-11-01T03:10:24.348Z,950.6
2022-11-01T03:11:30.512Z,950.5
2022-11-01T03:12:36.699Z,950.6
2022-11-01T03:13:42.851Z,950.6
2022-11-01T03:14:49.005Z,950.6
2022-11-01T03:15:55.207Z,950.6
2022-11-01T03:17:01.375Z,950.6
2022-11-01T03:18:07.537Z,950.7
2022-11-01T03:19:13.695Z,950.6
2022-11-01T03:21:26.052Z,950.7
2022-11-01T03:22:31.217Z,950.7
2022-11-01T03:23:37.400Z,950.7
2022-11-01T03:24:43.585Z,950.6
2022-11-01T03:25:49.809Z,950.7
2022-11-01T03:26:55.898Z,950.6
2022-11-01T03:28:02.057Z,950.6
2022-11-01T03:29:08.234Z,950.7
2022-11-01T03:30:13.434Z,950.8
2022-11-01T03:31:18.607Z,950.7
2022-11-01T03:32:24.778Z,950.7
2022-11-01T03:33:30.939Z,950.7
2022-11-01T03:34:37.116Z,950.7
2022-11-01T03:35:42.342Z,950.8
2022-11-01T03:36:47.496Z,950.8
2022-11-01T03:37:53.703Z,950.8
2022-11-01T03:38:59.840Z,950.8
2022-11-01T03:40:06.025Z,950.8
2022-11-01T03:41:12.217Z,950.8
2022-11-01T03:42:18.356Z,950.9
2022-11-01T03:44:30.693Z,950.9
2022-11-01T03:45:36.863Z,950.9
2022-11-01T03:46:43.026Z,951
2022-11-01T03:47:49.209Z,951
2022-11-01T03:48:55.381Z,951.1
2022-11-01T03:50:01.539Z,951.1
2022-11-01T03:51:06.728Z,951.1
2022-11-01T03:52:12.892Z,951.1
2022-11-01T03:53:19.077Z,951.2
2022-11-01T03:54:25.222Z,951.2
2022-11-01T03:55:31.396Z,951.2
2022-11-01T03:56:37.565Z,951.3
2022-11-01T03:57:43.803Z,951.3
2022-11-01T03:58:49.918Z,951.3
2022-11-01T03:59:55.105Z,951.3
2022-11-01T04:01:00.290Z,951.5
2022-11-01T04:02:05.499Z,951.5
2022-11-01T04:03:10.678Z,951.5
2022-11-01T04:04:16.854Z,951.4
2022-11-01T04:06:29.180Z,951.4
2022-11-01T04:07:35.333Z,951.5
2022-11-01T04:08:41.533Z,951.6
2022-11-01T04:09:47.700Z,951.6
2022-11-01T04:10:53.867Z,951.6
2022-11-01T04:12:00.088Z,951.6
2022-11-01T04:13:06.213Z,951.7
2022-11-01T04:14:12.387Z,951.7
2022-11-01T04:15:18.524Z,951.7
2022-11-01T04:16:24.710Z,951.7
2022-11-01T04:17:29.891Z,951.8
2022-11-01T04:18:36.085Z,951.8
2022-11-01T04:19:42.235Z,951.8
2022-11-01T04:20:48.427Z,951.8
2022-11-01T04:21:54.589Z,951.8
2022-11-01T04:23:00.750Z,951.8
2022-11-01T04:24:06.904Z,951.8
2022-11-01T04:25:13.105Z,951.9
2022-11-01T04:26:18.289Z,951.9
2022-11-01T04:27:23.514Z,951.9
2022-11-01T04:28:29.637Z,951.9
2022-11-01T04:29:35.813Z,952
2022-11-01T04:30:41.976Z,951.9
2022-11-01T04:31:48.222Z,951.9
2022-11-01T04:32:54.342Z,952
2022-11-01T04:34:00.506Z,952
2022-11-01T04:35:06.692Z,951.9
2022-11-01T04:36:12.812Z,952
2022-11-01T04:37:19.022Z,951.9
2022-11-01T04:38:25.138Z,951.9
2022-11-01T04:39:31.311Z,951.9
2022-11-01T04:40:37.487Z,951.9
2022-11-01T04:41:42.697Z,951.9
2022-11-01T04:42:48.841Z,952
2022-11-01T04:43:55.004Z,952
2022-11-01T04:45:01.191Z,952
2022-11-01T04:46:07.345Z,952
2022-11-01T04:47:13.532Z,952
2022-11-01T04:48:19.697Z,952
2022-11-01T04:49:24.895Z,952
2022-11-01T04:50:30.088Z,952
2022-11-01T04:51:35.272Z,952
2022-11-01T04:52:40.463Z,952
2022-11-01T04:53:45.636Z,952
2022-11-01T04:54:50.854Z,952
2022-11-01T04:55:56.995Z,952
2022-11-01T04:57:03.176Z,952
2022-11-01T04:58:09.335Z,952
2022-11-01T04:59:15.511Z,952
2022-11-01T05:00:21.686Z,952
2022-11-01T05:01:27.879Z,952
2022-11-01T05:02:34.028Z,952.1
2022-11-01T05:03:40.207Z,952.1
2022-11-01T05:04:46.350Z,952.1
2022-11-01T05:05:52.532Z,952.1
2022-11-01T05:06:58.694Z,952.1
2022-11-01T05:08:04.875Z,952.2
2022-11-01T05:09:10.059Z,952.2
2022-11-01T05:10:16.231Z,952.2
2022-11-01T05:11:22.392Z,952.2
2022-11-01T05:12:28.587Z,952.3
2022-11-01T05:13:34.730Z,952.3
2022-11-01T05:14:40.906Z,952.3
2022-11-01T05:15:47.073Z,952.3
2022-11-01T05:16:52.277Z,952.3
2022-11-01T05:17:57.461Z,952.3
2022-11-01T05:19:02.637Z,952.3
2022-11-01T05:20:07.836Z,952.3
2022-11-01T05:21:14.084Z,952.3
2022-11-01T05:22:20.164Z,952.3
2022-11-01T05:23:26.339Z,952.2
2022-11-01T05:24:32.510Z,952.2
2022-11-01T05:25:38.679Z,952.2
2022-11-01T05:26:44.846Z,952.2
2022-11-01T05:27:51.019Z,952.2
2022-11-01T05:28:57.184Z,952.2
2022-11-01T05:31:09.552Z,952.2
2022-11-01T05:32:15.696Z,952.3
2022-11-01T05:33:21.879Z,952.3
2022-11-01T05:34:27.077Z,952.3
2022-11-01T05:35:33.219Z,952.3
2022-11-01T05:36:39.392Z,952.3
2022-11-01T05:37:45.651Z,952.3
2022-11-01T05:38:51.737Z,952.3
2022-11-01T05:39:57.898Z,952.3
2022-11-01T05:41:04.112Z,952.3
2022-11-01T05:42:10.240Z,952.3
2022-11-01T05:43:15.448Z,952.2
2022-11-01T05:44:20.615Z,952.3
2022-11-01T05:45:25.820Z,952.3
2022-11-01T05:46:31.004Z,952.3
2022-11-01T05:47:37.178Z,952.3
2022-11-01T05:48:43.338Z,952.4
2022-11-01T05:49:49.511Z,952.4
2022-11-01T05:50:55.685Z,952.4
2022-11-01T05:52:01.849Z,952.4
2022-11-01T05:53:08.024Z,952.3
2022-11-01T05:54:14.222Z,952.2
2022-11-01T05:55:20.376Z,952.2
2022-11-01T05:56:26.552Z,952.2
2022-11-01T05:57:32.706Z,952.3
2022-11-01T05:58:38.863Z,952.3
2022-11-01T05:59:45.040Z,952.4
2022-11-01T06:00:50.228Z,952.4
2022-11-01T06:01:56.400Z,952.3
2022-11-01T06:03:02.566Z,952.2
2022-11-01T06:04:08.729Z,952.2
2022-11-01T06:05:14.954Z,952.1
2022-11-01T06:06:21.103Z,952.1
2022-11-01T06:07:27.260Z,952.1
2022-11-01T06:08:32.450Z,952.2
2022-11-01T06:09:37.639Z,952.2
2022-11-01T06:10:43.811Z,952.2
2022-11-01T06:11:49.957Z,952.2
2022-11-01T06:12:56.137Z,952.2
2022-11-01T06:14:02.296Z,952.2
2022-11-01T06:15:08.463Z,952.2
2022-11-01T06:16:14.640Z,952.2
2022-11-01T06:17:20.809Z,952.2
2022-11-01T06:18:27.014Z,952.2
2022-11-01T06:19:32.199Z,952.2
2022-11-01T06:20:38.372Z,952.2
2022-11-01T06:21:44.531Z,952.3
2022-11-01T06:22:50.720Z,952.3
2022-11-01T06:23:56.880Z,952.3
2022-11-01T06:25:03.033Z,952.3
2022-11-01T06:26:09.239Z,952.3
2022-11-01T06:27:15.366Z,952.3
2022-11-01T06:28:21.527Z,952.3
2022-11-01T06:29:27.705Z,952.3
2022-11-01T06:30:33.882Z,952.3
2022-11-01T06:31:39.074Z,952.3
2022-11-01T06:32:44.246Z,952.4
2022-11-01T06:33:50.475Z,952.4
2022-11-01T06:34:56.688Z,952.4
2022-11-01T06:36:02.764Z,952.4
2022-11-01T06:37:08.940Z,952.4
2022-11-01T06:38:15.173Z,952.4
2022-11-01T06:39:21.255Z,952.4
2022-11-01T06:40:27.442Z,952.3
2022-11-01T06:41:33.601Z,952.4
2022-11-01T06:42:39.781Z,952.4
2022-11-01T06:43:45.935Z,952.4
2022-11-01T06:44:52.108Z,952.4
2022-11-01T06:45:58.283Z,952.4
2022-11-01T06:47:03.462Z,952.4
2022-11-01T06:48:09.636Z,952.4
2022-11-01T06:49:15.810Z,952.4
2022-11-01T06:50:22.010Z,952.4
2022-11-01T06:51:28.150Z,952.4
2022-11-01T06:52:34.310Z,952.4
2022-11-01T06:53:40.540Z,952.4
2022-11-01T06:54:45.682Z,952.4
2022-11-01T06:55:50.853Z,952.4
2022-11-01T06:56:56.059Z,952.5
2022-11-01T06:58:01.241Z,952.5
2022-11-01T06:59:06.449Z,952.5
2022-11-01T07:00:11.674Z,952.5
2022-11-01T07:01:17.800Z,952.5
2022-11-01T07:02:23.976Z,952.5
2022-11-01T07:03:30.146Z,952.6
2022-11-01T07:04:36.313Z,952.6
2022-11-01T07:05:42.480Z,952.5
2022-11-01T07:06:48.651Z,952.5
2022-11-01T07:07:54.885Z,952.5
2022-11-01T07:09:01.065Z,952.6
2022-11-01T07:10:07.181Z,952.6
2022-11-01T07:11:13.328Z,952.6
2022-11-01T07:12:19.496Z,952.7
2022-11-01T07:13:25.694Z,952.7
2022-11-01T07:14:30.855Z,952.7
2022-11-01T07:15:37.061Z,952.7
2022-11-01T07:16:43.245Z,952.8
2022-11-01T07:17:49.434Z,952.8
2022-11-01T07:18:55.612Z,952.8
2022-11-01T07:20:01.706Z,952.8
2022-11-01T07:21:07.856Z,952.7
2022-11-01T07:22:13.161Z,952.8
2022-11-01T07:23:18.288Z,952.8
2022-11-01T07:24:23.486Z,952.8
2022-11-01T07:25:28.626Z,952.7
2022-11-01T07:26:34.804Z,952.7
2022-11-01T07:27:40.984Z,952.7
2022-11-01T07:28:47.146Z,952.7
2022-11-01T07:29:53.319Z,952.7
2022-11-01T07:30:59.596Z,952.7
2022-11-01T07:32:05.680Z,952.8
2022-11-01T07:33:11.845Z,952.8
2022-11-01T07:34:18.079Z,952.8
2022-11-01T07:35:24.209Z,952.8
2022-11-01T07:36:30.341Z,952.8
2022-11-01T07:37:36.493Z,952.8
2022-11-01T07:38:42.666Z,952.7
2022-11-01T07:39:47.844Z,952.7
2022-11-01T07:40:54.047Z,952.7
2022-11-01T07:42:00.275Z,952.7
2022-11-01T07:43:06.410Z,952.7
2022-11-01T07:44:12.593Z,952.7
2022-11-01T07:45:18.692Z,952.7
2022-11-01T07:46:24.907Z,952.8
2022-11-01T07:47:30.091Z,952.7
2022-11-01T07:48:35.325Z,952.7
2022-11-01T07:49:40.441Z,952.7
2022-11-01T07:50:45.629Z,952.8
2022-11-01T07:51:51.799Z,952.8
2022-11-01T07:52:58.001Z,952.8
2022-11-01T07:54:04.220Z,952.9
2022-11-01T07:55:10.346Z,952.9
2022-11-01T07:56:16.547Z,952.9
2022-11-01T07:57:22.663Z,952.9
2022-11-01T07:58:28.818Z,953
2022-11-01T07:59:35.038Z,953
2022-11-01T08:00:41.174Z,953
2022-11-01T08:01:47.364Z,953
2022-11-01T08:02:53.533Z,952.9
2022-11-01T08:03:59.752Z,952.9
2022-11-01T08:05:04.937Z,952.9
2022-11-01T08:06:11.140Z,952.9
2022-11-01T08:07:17.295Z,952.9
2022-11-01T08:08:23.427Z,952.9
2022-11-01T08:09:29.587Z,952.9
2022-11-01T08:10:35.837Z,952.9
2022-11-01T08:11:42.024Z,952.8
2022-11-01T08:12:47.064Z,952.9
2022-11-01T08:13:52.310Z,952.9
2022-11-01T08:14:58.481Z,952.9
2022-11-01T08:16:04.695Z,952.9
2022-11-01T08:17:10.768Z,952.9
2022-11-01T08:18:17.030Z,953
2022-11-01T08:19:23.189Z,953
2022-11-01T08:20:29.258Z,953
2022-11-01T08:21:35.482Z,953.1
2022-11-01T08:22:41.688Z,953.1
2022-11-01T08:23:47.887Z,953.1
2022-11-01T08:24:53.998Z,953
2022-11-01T08:26:00.182Z,953
2022-11-01T08:27:06.300Z,953
2022-11-01T08:28:11.515Z,953
2022-11-01T08:29:17.715Z,953
2022-11-01T08:30:23.811Z,953.1
2022-11-01T08:31:30.075Z,953.1
2022-11-01T08:32:36.188Z,953.1
2022-11-01T08:33:42.331Z,953.2
2022-11-01T08:34:48.490Z,953.2
2022-11-01T08:35:53.728Z,953.2
2022-11-01T08:36:59.006Z,953.2
2022-11-01T08:38:04.107Z,953.2
2022-11-01T08:39:09.286Z,953.2
2022-11-01T08:40:15.527Z,953.3
2022-11-01T08:41:21.629Z,953.3
2022-11-01T08:42:27.849Z,953.2
2022-11-01T08:43:33.999Z,953.2
2022-11-01T08:44:40.115Z,953.3
2022-11-01T08:45:46.268Z,953.3
2022-11-01T08:46:52.426Z,953.3
2022-11-01T08:47:58.637Z,953.3
2022-11-01T08:49:04.788Z,953.3
2022-11-01T08:50:10.943Z,953.3
2022-11-01T08:51:17.123Z,953.3
2022-11-01T08:52:23.327Z,953.3
2022-11-01T08:53:28.519Z,953.3
2022-11-01T08:54:34.647Z,953.4
2022-11-01T08:55:40.861Z,953.3
2022-11-01T08:56:46.979Z,953.4
2022-11-01T08:57:53.166Z,953.4
2022-11-01T08:58:59.329Z,953.4
2022-11-01T09:00:05.508Z,953.4
2022-11-01T09:01:10.774Z,953.4
2022-11-01T09:02:15.889Z,953.4
2022-11-01T09:03:21.105Z,953.4
2022-11-01T09:04:26.258Z,953.5
2022-11-01T09:05:32.456Z,953.4
2022-11-01T09:06:38.634Z,953.4
2022-11-01T09:07:44.828Z,953.4
2022-11-01T09:08:50.940Z,953.4
2022-11-01T09:09:57.089Z,953.4
2022-11-01T09:11:03.346Z,953.4
2022-11-01T09:12:09.473Z,953.4
2022-11-01T09:13:15.697Z,953.4
2022-11-01T09:14:21.785Z,953.4
2022-11-01T09:15:27.983Z,953.4
2022-11-01T09:16:34.138Z,953.4
2022-11-01T09:17:40.353Z,953.4
2022-11-01T09:18:45.542Z,953.4
2022-11-01T09:19:51.639Z,953.4
2022-11-01T09:20:57.808Z,953.4
2022-11-01T09:22:03.986Z,953.4
2022-11-01T09:23:10.183Z,953.5
2022-11-01T09:24:16.342Z,953.5
2022-11-01T09:25:22.493Z,953.5
2022-11-01T09:26:27.690Z,953.5
2022-11-01T09:27:32.858Z,953.5
2022-11-01T09:28:39.066Z,953.5
2022-11-01T09:29:45.270Z,953.5
2022-11-01T09:30:51.431Z,953.5
2022-11-01T09:31:57.560Z,953.4
2022-11-01T09:33:03.782Z,953.5
2022-11-01T09:34:09.906Z,953.5
2022-11-01T09:35:16.124Z,953.5
2022-11-01T09:36:22.241Z,953.5
2022-11-01T09:37:28.408Z,953.5
2022-11-01T09:38:34.608Z,953.5
2022-11-01T09:39:40.765Z,953.5
2022-11-01T09:40:46.905Z,953.5
2022-11-01T09:41:52.098Z,953.5
2022-11-01T09:42:58.263Z,953.5
2022-11-01T09:44:04.441Z,953.5
2022-11-01T09:45:10.590Z,953.5
2022-11-01T09:46:16.799Z,953.5
2022-11-01T09:47:22.966Z,953.5
2022-11-01T09:48:29.131Z,953.5
2022-11-01T09:49:34.325Z,953.5
2022-11-01T09:50:39.563Z,953.6
2022-11-01T09:51:44.693Z,953.6
2022-11-01T09:52:49.868Z,953.6
2022-11-01T09:53:55.093Z,953.7
2022-11-01T09:55:00.272Z,953.6
2022-11-01T09:56:05.464Z,953.6
2022-11-01T09:57:10.653Z,953.6
2022-11-01T09:58:15.831Z,953.6
2022-11-01T09:59:21.037Z,953.6
2022-11-01T10:00:26.272Z,953.6
2022-11-01T10:01:31.474Z,953.6
2022-11-01T10:02:37.597Z,953.6
2022-11-01T10:03:43.814Z,953.6
2022-11-01T10:04:49.924Z,953.7
2022-11-01T10:05:56.086Z,953.7
2022-11-01T10:07:02.288Z,953.6
2022-11-01T10:08:08.425Z,953.6
2022-11-01T10:09:14.639Z,953.6
2022-11-01T10:10:20.769Z,953.6
2022-11-01T10:11:26.939Z,953.6
2022-11-01T10:12:33.094Z,953.6
2022-11-01T10:13:39.334Z,953.6
2022-11-01T10:14:45.455Z,953.6
2022-11-01T10:15:50.660Z,953.7
2022-11-01T10:16:56.826Z,953.7
2022-11-01T10:18:02.966Z,953.7
2022-11-01T10:19:09.151Z,953.7
2022-11-01T10:20:15.307Z,953.7
2022-11-01T10:21:21.486Z,953.7
2022-11-01T10:22:27.641Z,953.7
2022-11-01T10:23:32.846Z,953.7
2022-11-01T10:24:38.128Z,953.7
2022-11-01T10:25:44.227Z,953.8
2022-11-01T10:26:50.460Z,953.8
2022-11-01T10:27:56.522Z,953.7
2022-11-01T10:29:02.704Z,953.7
2022-11-01T10:30:08.893Z,953.7
2022-11-01T10:31:15.161Z,953.7
2022-11-01T10:32:21.227Z,953.7
2022-11-01T10:33:27.388Z,953.7
2022-11-01T10:34:33.568Z,953.7
2022-11-01T10:35:39.736Z,953.7
2022-11-01T10:36:45.894Z,953.7
2022-11-01T10:37:52.058Z,953.7
2022-11-01T10:38:57.254Z,953.7
2022-11-01T10:40:03.485Z,953.7
2022-11-01T10:41:09.594Z,953.7
2022-11-01T10:42:15.755Z,953.7
2022-11-01T10:43:21.932Z,953.8
2022-11-01T10:44:28.089Z,953.8
2022-11-01T10:45:34.298Z,953.8
2022-11-01T10:46:39.547Z,953.7
2022-11-01T10:47:44.655Z,953.7
2022-11-01T10:48:49.875Z,953.7
2022-11-01T10:49:55.052Z,953.7
2022-11-01T10:51:01.219Z,953.7
2022-11-01T10:52:07.458Z,953.7
2022-11-01T10:53:13.566Z,953.6
2022-11-01T10:54:19.759Z,953.6
2022-11-01T10:55:25.896Z,953.6
2022-11-01T10:56:32.078Z,953.6
2022-11-01T10:57:38.217Z,953.6
2022-11-01T10:58:44.395Z,953.6
2022-11-01T10:59:50.590Z,953.6
2022-11-01T11:00:56.855Z,953.6
2022-11-01T11:02:03.043Z,953.6
2022-11-01T11:03:09.202Z,953.6
2022-11-01T11:04:14.408Z,953.6
2022-11-01T11:05:20.551Z,953.6
2022-11-01T11:06:26.729Z,953.6
2022-11-01T11:07:32.882Z,953.6
2022-11-01T11:08:39.082Z,953.6
2022-11-01T11:09:45.261Z,953.6
2022-11-01T11:10:51.407Z,953.5
2022-11-01T11:11:56.606Z,953.5
2022-11-01T11:13:01.748Z,953.5
2022-11-01T11:14:06.998Z,953.4
2022-11-01T11:15:12.183Z,953.5
2022-11-01T11:16:18.347Z,953.5
2022-11-01T11:17:24.504Z,953.5
2022-11-01T11:18:30.565Z,953.4
2022-11-01T11:19:36.837Z,953.4
2022-11-01T11:20:43.013Z,953.5
2022-11-01T11:21:49.192Z,953.4
2022-11-01T11:22:55.399Z,953.4
2022-11-01T11:24:01.533Z,953.4
2022-11-01T11:25:07.712Z,953.5
2022-11-01T11:26:13.975Z,953.5
2022-11-01T11:27:20.044Z,953.4
2022-11-01T11:28:26.070Z,953.4
2022-11-01T11:29:31.401Z,953.4
2022-11-01T11:30:37.577Z,953.4
2022-11-01T11:31:43.727Z,953.4
2022-11-01T11:32:49.883Z,953.4
2022-11-01T11:33:56.060Z,953.4
2022-11-01T11:35:02.085Z,953.4
2022-11-01T11:36:08.390Z,953.4
2022-11-01T11:37:13.579Z,953.4
2022-11-01T11:38:18.796Z,953.5
2022-11-01T11:39:23.844Z,953.5
2022-11-01T11:40:29.183Z,953.5
2022-11-01T11:41:35.312Z,953.5
2022-11-01T11:42:41.511Z,953.5
2022-11-01T11:43:47.660Z,953.5
2022-11-01T11:44:53.815Z,953.5
2022-11-01T11:45:59.988Z,953.5
2022-11-01T11:47:06.178Z,953.5
2022-11-01T11:48:12.323Z,953.5
2022-11-01T11:49:18.382Z,953.5
2022-11-01T11:50:24.658Z,953.5
2022-11-01T11:51:30.715Z,953.5
2022-11-01T11:52:36.878Z,953.5
2022-11-01T11:53:43.065Z,953.5
2022-11-01T11:54:48.281Z,953.5
2022-11-01T11:55:54.470Z,953.5
2022-11-01T11:57:00.608Z,953.5
2022-11-01T11:58:06.864Z,953.4
2022-11-01T11:59:13.042Z,953.5
2022-11-01T12:00:19.180Z,953.5
2022-11-01T12:01:25.404Z,953.5
2022-11-01T12:02:30.518Z,953.5
2022-11-01T12:03:35.741Z,953.5
2022-11-01T12:04:40.942Z,953.4
2022-11-01T12:05:46.099Z,953.4
2022-11-01T12:06:52.276Z,953.5
2022-11-01T12:07:58.427Z,953.5
2022-11-01T12:09:04.583Z,953.5
2022-11-01T12:10:10.696Z,953.5
2022-11-01T12:11:16.945Z,953.5
2022-11-01T12:12:23.071Z,953.5
2022-11-01T12:13:29.233Z,953.5
2022-11-01T12:14:35.398Z,953.5
2022-11-01T12:15:41.548Z,953.5
2022-11-01T12:16:47.796Z,953.4
2022-11-01T12:17:54.037Z,953.4
2022-11-01T12:19:00.132Z,953.4
2022-11-01T12:20:05.290Z,953.4
2022-11-01T12:21:11.504Z,953.4
2022-11-01T12:22:17.717Z,953.5
2022-11-01T12:23:23.882Z,953.5
2022-11-01T12:24:30.034Z,953.5
2022-11-01T12:25:36.102Z,953.5
2022-11-01T12:26:42.264Z,953.5
2022-11-01T12:27:47.583Z,953.5
2022-11-01T12:28:52.652Z,953.6
2022-11-01T12:29:57.985Z,953.6
2022-11-01T12:31:03.136Z,953.5
2022-11-01T12:39:52.511Z,953.4
2022-11-01T12:40:59.409Z,953.5
2022-11-01T12:42:04.718Z,953.4
2022-11-01T12:43:11.009Z,953.5
2022-11-01T12:44:17.143Z,953.5
2022-11-01T12:45:22.360Z,953.5
2022-11-01T12:46:28.422Z,953.4
2022-11-01T12:47:34.669Z,953.4
2022-11-01T12:48:40.843Z,953.4
2022-11-01T12:49:46.050Z,953.5
2022-11-01T12:50:51.139Z,953.4
2022-11-01T12:51:57.423Z,953.4
2022-11-01T12:53:03.578Z,953.4
2022-11-01T12:54:09.761Z,953.4
2022-11-01T12:55:15.876Z,953.4
2022-11-01T12:56:22.097Z,953.3
2022-11-01T12:57:28.217Z,953.3
2022-11-01T12:58:34.387Z,953.3
2022-11-01T12:59:40.573Z,953.3
2022-11-01T13:00:46.663Z,953.4
2022-11-01T13:01:51.912Z,953.3
2022-11-01T13:02:57.143Z,953.3
2022-11-01T13:04:03.268Z,953.3
2022-11-01T13:05:09.424Z,953.4
2022-11-01T13:06:15.555Z,953.4
2022-11-01T13:07:21.792Z,953.4
2022-11-01T13:08:27.885Z,953.4
2022-11-01T13:09:34.056Z,953.4
2022-11-01T13:10:40.375Z,953.4
2022-11-01T13:11:46.499Z,953.4
2022-11-01T13:12:52.653Z,953.3
2022-11-01T13:13:57.803Z,953.4
2022-11-01T13:15:02.999Z,953.4
2022-11-01T13:16:09.164Z,953.4
2022-11-01T13:21:39.973Z,953.4
2022-11-01T13:22:46.130Z,953.5
2022-11-01T13:23:52.397Z,953.5
2022-11-01T13:24:58.579Z,953.4
2022-11-01T13:26:04.678Z,953.4
2022-11-01T13:27:10.935Z,953.4
2022-11-01T13:28:17.105Z,953.4
2022-11-01T13:29:22.188Z,953.4
2022-11-01T13:30:27.445Z,953.3
2022-11-01T13:31:32.648Z,953.3
2022-11-01T13:32:38.723Z,953.4
2022-11-01T13:33:44.990Z,953.4
2022-11-01T13:34:51.054Z,953.4
2022-11-01T13:35:57.319Z,953.4
2022-11-01T13:37:03.455Z,953.4
2022-11-01T13:38:09.623Z,953.4
2022-11-01T13:39:15.759Z,953.4
2022-11-01T13:40:21.965Z,953.3
2022-11-01T13:41:27.131Z,953.4
2022-11-01T13:42:32.336Z,953.3
2022-11-01T13:43:37.616Z,953.3
2022-11-01T13:44:43.751Z,953.3
2022-11-01T13:45:49.961Z,953.4
2022-11-01T13:46:56.035Z,953.4
2022-11-01T13:48:02.240Z,953.4
2022-11-01T13:49:08.417Z,953.4
2022-11-01T13:50:14.583Z,953.4
2022-11-01T13:51:20.722Z,953.4
2022-11-01T13:52:26.887Z,953.3
2022-11-01T13:53:33.037Z,953.4
2022-11-01T13:54:39.246Z,953.4
2022-11-01T13:55:45.338Z,953.4
2022-11-01T13:56:51.609Z,953.3
2022-11-01T13:57:56.839Z,953.3
2022-11-01T13:59:02.865Z,953.3
2022-11-01T14:00:09.184Z,953.3
2022-11-01T14:01:15.288Z,953.3
2022-11-01T14:02:21.396Z,953.3
2022-11-01T14:03:27.659Z,953.4
2022-11-01T14:04:33.759Z,953.3
2022-11-01T14:05:38.923Z,953.3
2022-11-01T14:06:44.141Z,953.3
2022-11-01T14:07:49.414Z,953.4
2022-11-01T14:08:54.520Z,953.4
2022-11-01T14:10:00.653Z,953.3
2022-11-01T14:11:06.881Z,953.3
2022-11-01T14:12:13.052Z,953.3
2022-11-01T14:13:19.276Z,953.3
2022-11-01T14:14:25.329Z,953.3
2022-11-01T14:15:31.555Z,953.4
2022-11-01T14:16:37.694Z,953.4
2022-11-01T14:17:43.838Z,953.4
2022-11-01T14:18:50.020Z,953.4
2022-11-01T14:19:56.182Z,953.4
2022-11-01T14:21:02.370Z,953.3
2022-11-01T14:22:08.514Z,953.3
2022-11-01T14:23:13.730Z,953.4
2022-11-01T14:24:19.859Z,953.4
2022-11-01T14:25:26.067Z,953.4
2022-11-01T14:26:32.279Z,953.4
2022-11-01T14:27:38.483Z,953.4
2022-11-01T14:28:44.601Z,953.4
2022-11-01T14:29:50.783Z,953.3
2022-11-01T14:30:55.916Z,953.3